Pinot Noir Commodore — WCZ7643 — position and weather

sailwx.info

Track history (hours):
 
Tides and Currents Weather Stations Pressure Air Temp Water Temp Dewpoint Dewpoint Depression Visibility Wind Speed Wind Dir Waves Ship Positions

Pinot Noir Commodore

Owner: PROESCHER, WARD H, Alameda, CA. More information available from US FCC via Universal Licensing System and Coast Guard Vessel Documentation Center.

Last reported at 2018-Apr-22 05:43 UTC. Time now 2018-Apr-26 01:30 UTC.
Position N 37°47' W 122°17'.

Length 25 m; draft 1 m.

Type: Passenger vessel. MMSI: 367437910.

Date/timePositionNaut miles runAvg speedWind from/ knotsBaromVisibWave heightAir tempDewpointWater temp
2018-Apr-22 05:43N 37°47' W 122°17'0 0.3
2018-Apr-22 05:30N 37°48' W 122°17'2 4.3
2018-Apr-22 05:00N 37°48' W 122°19'4 7.4
2018-Apr-22 04:30N 37°49' W 122°24'3 5.6
2018-Apr-22 04:00N 37°50' W 122°27'1 2.1
2018-Apr-22 03:30N 37°49' W 122°26'3 6.6
2018-Apr-22 03:00N 37°47' W 122°23'4 7.1
2018-Apr-22 02:30N 37°48' W 122°19'2 3.5
2018-Apr-22 02:00N 37°47' W 122°17'0 0.0
2018-Apr-22 01:30N 37°47' W 122°17'0 0.0
2018-Apr-21 19:01N 37°47' W 122°17'0 0.0
2018-Apr-21 19:00N 37°47' W 122°17'  
2018-Apr-15 05:58N 37°47' W 122°17'2 3.3
2018-Apr-15 05:30N 37°48' W 122°19'2 4.6
2018-Apr-15 05:00N 37°49' W 122°21'2 3.9
2018-Apr-15 04:30N 37°47' W 122°23'1 1.7
2018-Apr-15 04:00N 37°48' W 122°23'3 5.5
2018-Apr-15 03:30N 37°50' W 122°26'2 3.5
2018-Apr-15 03:00N 37°49' W 122°24'3 6.4
2018-Apr-15 02:30N 37°48' W 122°20'3 5.6
2018-Apr-15 02:00N 37°47' W 122°17'0 0.0
2018-Apr-15 01:30N 37°47' W 122°17'0 0.0
2018-Apr-14 18:16N 37°47' W 122°17'0 0.0
2018-Apr-14 18:00N 37°47' W 122°17'0 0.0
2018-Apr-14 17:30N 37°47' W 122°17'0 0.0
2018-Apr-14 17:00N 37°47' W 122°17'  
2018-Apr-12 05:59N 37°47' W 122°17'  
Track history (hours):
 
Tides and Currents Weather Stations Pressure Air Temp Water Temp Dewpoint Dewpoint Depression Visibility Wind Speed Wind Dir Waves Ship Positions

Pinot Noir Commodore

Owner: PROESCHER, WARD H, Alameda, CA. More information available from US FCC via Universal Licensing System and Coast Guard Vessel Documentation Center.

Last reported at 2018-Apr-22 05:43 UTC. Time now 2018-Apr-26 01:30 UTC.
Position N 37°47' W 122°17'.

Length 25 m; draft 1 m.

Type: Passenger vessel. MMSI: 367437910.

Date/timePositionNaut miles runAvg speedWind from/ knotsBaromVisibWave heightAir tempDewpointWater temp
2018-Apr-22 05:43N 37°47' W 122°17'0 0.3
2018-Apr-22 05:30N 37°48' W 122°17'2 4.3
2018-Apr-22 05:00N 37°48' W 122°19'4 7.4
2018-Apr-22 04:30N 37°49' W 122°24'3 5.6
2018-Apr-22 04:00N 37°50' W 122°27'1 2.1
2018-Apr-22 03:30N 37°49' W 122°26'3 6.6
2018-Apr-22 03:00N 37°47' W 122°23'4 7.1
2018-Apr-22 02:30N 37°48' W 122°19'2 3.5
2018-Apr-22 02:00N 37°47' W 122°17'0 0.0
2018-Apr-22 01:30N 37°47' W 122°17'0 0.0
2018-Apr-21 19:01N 37°47' W 122°17'0 0.0
2018-Apr-21 19:00N 37°47' W 122°17'  
2018-Apr-15 05:58N 37°47' W 122°17'2 3.3
2018-Apr-15 05:30N 37°48' W 122°19'2 4.6
2018-Apr-15 05:00N 37°49' W 122°21'2 3.9
2018-Apr-15 04:30N 37°47' W 122°23'1 1.7
2018-Apr-15 04:00N 37°48' W 122°23'3 5.5
2018-Apr-15 03:30N 37°50' W 122°26'2 3.5
2018-Apr-15 03:00N 37°49' W 122°24'3 6.4
2018-Apr-15 02:30N 37°48' W 122°20'3 5.6
2018-Apr-15 02:00N 37°47' W 122°17'0 0.0
2018-Apr-15 01:30N 37°47' W 122°17'0 0.0
2018-Apr-14 18:16N 37°47' W 122°17'0 0.0
2018-Apr-14 18:00N 37°47' W 122°17'0 0.0
2018-Apr-14 17:30N 37°47' W 122°17'0 0.0
2018-Apr-14 17:00N 37°47' W 122°17'  
2018-Apr-12 05:59N 37°47' W 122°17'  

Dump ship's entire track history